Koerth, Texas
Current Conditions -  °F | °C
As of 6:55 PM on Wednesday 22 Oct 2014 (Local Time) from K66R Reporting Station
Clear Clear  
Wind Chill: 74°   Ceiling: Unl
Heat Index: 74°   Visibility: 10mi
Dew Point: 58°   Wind: 3mph
Humidity: 58%   Direction: 80°E
Pressure: 30.04"   Gusts: NA
Location:  29.3984°N, 96.8256°W
Report Text: K66R 222355Z AUTO 08003KT 10SM CLR 23/15 A3004 RMK AO2 T02340147 10279 20234
Loading
Personal Weather Stations






























Interactive Weather Map
Tropical Storm Tracking
New forecast layout! Learn more

10-Day Weather Forecast

Advertisements
Track Severe Weather on mobile